Preview of NWS' New Version of Forecast
This preview is not operational and should not be used for support decisions.

Terminal Aerodrome Forecast (TAF)

Issued by National Weather Service (NWS)

                            
000
FTUS42 KMFL 132117 AAA
TAFMIA
TAF AMD
KMIA 132117Z 1321/1424 12008KT P6SM SCT040
     FM140000 VRB05KT P6SM SCT040
     FM141200 09010KT P6SM VCSH SCT025=